sensor_id;sensor_type;location;lat;lon;timestamp;P1;durP1;ratioP1;P2;durP2;ratioP2
69334;SDS011;56477;52.742;15.242;2023-02-28T00:00:21;22.67;;;6.57;;
69334;SDS011;56477;52.742;15.242;2023-02-28T00:03:07;13.40;;;5.10;;
69334;SDS011;56477;52.742;15.242;2023-02-28T00:05:33;19.60;;;5.70;;
69334;SDS011;56477;52.742;15.242;2023-02-28T00:07:59;15.23;;;5.57;;
69334;SDS011;56477;52.742;15.242;2023-02-28T00:10:26;18.75;;;6.18;;
69334;SDS011;56477;52.742;15.242;2023-02-28T00:12:55;18.20;;;6.53;;
69334;SDS011;56477;52.742;15.242;2023-02-28T00:15:24;16.80;;;6.23;;
69334;SDS011;56477;52.742;15.242;2023-02-28T00:17:50;20.63;;;6.82;;
69334;SDS011;56477;52.742;15.242;2023-02-28T00:20:17;17.98;;;6.65;;
69334;SDS011;56477;52.742;15.242;2023-02-28T00:22:45;17.95;;;7.38;;
69334;SDS011;56477;52.742;15.242;2023-02-28T00:25:14;21.23;;;7.00;;
69334;SDS011;56477;52.742;15.242;2023-02-28T00:27:43;20.20;;;6.80;;
69334;SDS011;56477;52.742;15.242;2023-02-28T00:30:10;18.75;;;6.80;;
69334;SDS011;56477;52.742;15.242;2023-02-28T00:32:38;26.05;;;8.35;;
69334;SDS011;56477;52.742;15.242;2023-02-28T00:35:05;21.45;;;7.68;;
69334;SDS011;56477;52.742;15.242;2023-02-28T00:37:32;22.80;;;8.27;;
69334;SDS011;56477;52.742;15.242;2023-02-28T00:39:58;25.90;;;8.13;;
69334;SDS011;56477;52.742;15.242;2023-02-28T00:42:24;26.67;;;9.52;;
69334;SDS011;56477;52.742;15.242;2023-02-28T00:44:52;22.17;;;9.40;;
69334;SDS011;56477;52.742;15.242;2023-02-28T00:47:17;28.63;;;10.03;;
69334;SDS011;56477;52.742;15.242;2023-02-28T00:49:44;26.47;;;9.73;;
69334;SDS011;56477;52.742;15.242;2023-02-28T00:52:10;24.48;;;8.57;;
69334;SDS011;56477;52.742;15.242;2023-02-28T00:54:36;28.30;;;9.57;;
69334;SDS011;56477;52.742;15.242;2023-02-28T00:57:02;28.67;;;9.70;;
69334;SDS011;56477;52.742;15.242;2023-02-28T00:59:28;23.23;;;8.57;;
69334;SDS011;56477;52.742;15.242;2023-02-28T01:01:54;25.58;;;9.73;;
69334;SDS011;56477;52.742;15.242;2023-02-28T01:04:20;25.10;;;9.00;;
69334;SDS011;56477;52.742;15.242;2023-02-28T01:06:46;24.27;;;9.53;;
69334;SDS011;56477;52.742;15.242;2023-02-28T01:09:12;26.45;;;9.90;;
69334;SDS011;56477;52.742;15.242;2023-02-28T01:11:38;30.15;;;10.40;;
69334;SDS011;56477;52.742;15.242;2023-02-28T01:14:06;27.90;;;9.98;;
69334;SDS011;56477;52.742;15.242;2023-02-28T01:16:32;26.23;;;9.63;;
69334;SDS011;56477;52.742;15.242;2023-02-28T01:18:58;25.98;;;9.65;;
69334;SDS011;56477;52.742;15.242;2023-02-28T01:21:24;25.05;;;9.90;;
69334;SDS011;56477;52.742;15.242;2023-02-28T01:23:50;28.67;;;9.80;;
69334;SDS011;56477;52.742;15.242;2023-02-28T01:26:18;27.98;;;10.40;;
69334;SDS011;56477;52.742;15.242;2023-02-28T01:28:46;28.40;;;11.00;;
69334;SDS011;56477;52.742;15.242;2023-02-28T01:31:12;27.60;;;10.30;;
69334;SDS011;56477;52.742;15.242;2023-02-28T01:33:39;30.52;;;10.65;;
69334;SDS011;56477;52.742;15.242;2023-02-28T01:36:06;31.27;;;11.37;;
69334;SDS011;56477;52.742;15.242;2023-02-28T01:38:35;37.47;;;13.50;;
69334;SDS011;56477;52.742;15.242;2023-02-28T01:41:02;49.17;;;17.55;;
69334;SDS011;56477;52.742;15.242;2023-02-28T01:43:29;45.50;;;17.38;;
69334;SDS011;56477;52.742;15.242;2023-02-28T01:46:18;41.03;;;16.38;;
69334;SDS011;56477;52.742;15.242;2023-02-28T01:51:39;41.78;;;18.10;;
69334;SDS011;56477;52.742;15.242;2023-02-28T01:54:07;41.30;;;15.40;;
69334;SDS011;56477;52.742;15.242;2023-02-28T01:56:40;40.70;;;15.48;;
69334;SDS011;56477;52.742;15.242;2023-02-28T01:59:30;39.17;;;15.85;;
69334;SDS011;56477;52.742;15.242;2023-02-28T02:02:01;43.37;;;15.23;;
69334;SDS011;56477;52.742;15.242;2023-02-28T02:04:32;42.78;;;15.40;;
69334;SDS011;56477;52.742;15.242;2023-02-28T02:07:04;40.25;;;15.90;;
69334;SDS011;56477;52.742;15.242;2023-02-28T02:09:31;39.83;;;14.68;;
69334;SDS011;56477;52.742;15.242;2023-02-28T02:11:57;41.53;;;14.27;;
69334;SDS011;56477;52.742;15.242;2023-02-28T02:36:56;40.35;;;14.00;;
69334;SDS011;56477;52.742;15.242;2023-02-28T02:42:55;43.42;;;13.15;;
69334;SDS011;56477;52.742;15.242;2023-02-28T02:45:28;37.38;;;14.50;;
69334;SDS011;56477;52.742;15.242;2023-02-28T02:48:11;37.83;;;13.10;;
69334;SDS011;56477;52.742;15.242;2023-02-28T02:50:45;47.33;;;15.00;;
69334;SDS011;56477;52.742;15.242;2023-02-28T02:53:15;47.00;;;15.23;;
69334;SDS011;56477;52.742;15.242;2023-02-28T02:55:46;42.33;;;13.57;;
69334;SDS011;56477;52.742;15.242;2023-02-28T02:58:18;44.00;;;13.40;;
69334;SDS011;56477;52.742;15.242;2023-02-28T03:00:56;40.47;;;13.98;;
69334;SDS011;56477;52.742;15.242;2023-02-28T03:03:25;41.58;;;14.52;;
69334;SDS011;56477;52.742;15.242;2023-02-28T03:05:59;42.40;;;14.67;;
69334;SDS011;56477;52.742;15.242;2023-02-28T03:08:27;42.60;;;15.52;;
69334;SDS011;56477;52.742;15.242;2023-02-28T03:11:01;35.25;;;13.32;;
69334;SDS011;56477;52.742;15.242;2023-02-28T03:16:22;40.05;;;14.70;;
69334;SDS011;56477;52.742;15.242;2023-02-28T03:24:43;33.40;;;12.18;;
69334;SDS011;56477;52.742;15.242;2023-02-28T03:27:27;33.45;;;12.48;;
69334;SDS011;56477;52.742;15.242;2023-02-28T03:30:02;36.70;;;13.48;;
69334;SDS011;56477;52.742;15.242;2023-02-28T03:32:42;43.97;;;13.63;;
69334;SDS011;56477;52.742;15.242;2023-02-28T03:35:36;33.47;;;12.65;;
69334;SDS011;56477;52.742;15.242;2023-02-28T03:40:46;32.40;;;11.77;;
69334;SDS011;56477;52.742;15.242;2023-02-28T03:43:17;30.30;;;10.77;;
69334;SDS011;56477;52.742;15.242;2023-02-28T03:45:48;33.47;;;12.13;;
69334;SDS011;56477;52.742;15.242;2023-02-28T03:48:20;31.33;;;10.93;;
69334;SDS011;56477;52.742;15.242;2023-02-28T03:51:08;32.35;;;11.10;;
69334;SDS011;56477;52.742;15.242;2023-02-28T03:53:42;31.40;;;11.57;;
69334;SDS011;56477;52.742;15.242;2023-02-28T03:56:17;32.17;;;11.32;;
69334;SDS011;56477;52.742;15.242;2023-02-28T04:02:02;27.17;;;10.43;;
69334;SDS011;56477;52.742;15.242;2023-02-28T04:04:28;26.42;;;10.05;;
69334;SDS011;56477;52.742;15.242;2023-02-28T04:07:00;28.92;;;10.27;;
69334;SDS011;56477;52.742;15.242;2023-02-28T04:09:29;29.88;;;10.38;;
69334;SDS011;56477;52.742;15.242;2023-02-28T04:11:55;25.43;;;10.03;;
69334;SDS011;56477;52.742;15.242;2023-02-28T04:14:21;27.42;;;9.48;;
69334;SDS011;56477;52.742;15.242;2023-02-28T04:16:48;25.23;;;9.32;;
69334;SDS011;56477;52.742;15.242;2023-02-28T04:19:14;23.75;;;9.10;;
69334;SDS011;56477;52.742;15.242;2023-02-28T04:21:41;26.63;;;8.70;;
69334;SDS011;56477;52.742;15.242;2023-02-28T04:24:13;25.63;;;9.23;;
69334;SDS011;56477;52.742;15.242;2023-02-28T04:26:42;25.98;;;9.52;;
69334;SDS011;56477;52.742;15.242;2023-02-28T04:29:13;25.50;;;9.73;;
69334;SDS011;56477;52.742;15.242;2023-02-28T04:31:49;29.10;;;9.93;;
69334;SDS011;56477;52.742;15.242;2023-02-28T04:34:14;21.73;;;9.20;;
69334;SDS011;56477;52.742;15.242;2023-02-28T04:36:42;22.13;;;8.85;;
69334;SDS011;56477;52.742;15.242;2023-02-28T04:39:08;25.17;;;8.82;;
69334;SDS011;56477;52.742;15.242;2023-02-28T04:41:35;28.15;;;9.45;;
69334;SDS011;56477;52.742;15.242;2023-02-28T04:44:01;20.53;;;8.50;;
69334;SDS011;56477;52.742;15.242;2023-02-28T04:46:27;22.90;;;8.52;;
69334;SDS011;56477;52.742;15.242;2023-02-28T04:48:53;24.10;;;8.70;;
69334;SDS011;56477;52.742;15.242;2023-02-28T04:51:20;22.83;;;9.88;;
69334;SDS011;56477;52.742;15.242;2023-02-28T04:53:46;21.20;;;8.33;;
69334;SDS011;56477;52.742;15.242;2023-02-28T04:56:13;22.08;;;9.00;;
69334;SDS011;56477;52.742;15.242;2023-02-28T04:58:41;19.50;;;8.18;;
69334;SDS011;56477;52.742;15.242;2023-02-28T05:01:22;21.27;;;8.23;;
69334;SDS011;56477;52.742;15.242;2023-02-28T05:03:50;25.40;;;8.83;;
69334;SDS011;56477;52.742;15.242;2023-02-28T05:06:18;23.67;;;8.98;;
69334;SDS011;56477;52.742;15.242;2023-02-28T05:08:45;21.80;;;8.68;;
69334;SDS011;56477;52.742;15.242;2023-02-28T05:11:14;22.20;;;8.30;;
69334;SDS011;56477;52.742;15.242;2023-02-28T05:13:42;22.02;;;8.73;;
69334;SDS011;56477;52.742;15.242;2023-02-28T05:16:09;26.87;;;9.27;;
69334;SDS011;56477;52.742;15.242;2023-02-28T05:18:35;24.02;;;8.68;;
69334;SDS011;56477;52.742;15.242;2023-02-28T05:21:02;25.98;;;9.18;;
69334;SDS011;56477;52.742;15.242;2023-02-28T05:23:28;25.88;;;8.73;;
69334;SDS011;56477;52.742;15.242;2023-02-28T05:25:55;20.92;;;8.13;;
69334;SDS011;56477;52.742;15.242;2023-02-28T05:28:21;21.80;;;8.67;;
69334;SDS011;56477;52.742;15.242;2023-02-28T05:30:47;22.95;;;9.02;;
69334;SDS011;56477;52.742;15.242;2023-02-28T05:33:13;19.98;;;8.63;;
69334;SDS011;56477;52.742;15.242;2023-02-28T05:35:40;22.05;;;8.23;;
69334;SDS011;56477;52.742;15.242;2023-02-28T05:38:08;22.07;;;8.17;;
69334;SDS011;56477;52.742;15.242;2023-02-28T05:40:34;26.30;;;9.20;;
69334;SDS011;56477;52.742;15.242;2023-02-28T05:43:00;22.58;;;8.10;;
69334;SDS011;56477;52.742;15.242;2023-02-28T05:45:26;23.52;;;8.20;;
69334;SDS011;56477;52.742;15.242;2023-02-28T05:47:55;27.53;;;9.17;;
69334;SDS011;56477;52.742;15.242;2023-02-28T05:50:22;24.85;;;9.02;;
69334;SDS011;56477;52.742;15.242;2023-02-28T05:52:51;23.30;;;9.52;;
69334;SDS011;56477;52.742;15.242;2023-02-28T05:55:17;28.00;;;9.98;;
69334;SDS011;56477;52.742;15.242;2023-02-28T05:57:43;30.53;;;10.40;;
69334;SDS011;56477;52.742;15.242;2023-02-28T06:00:10;30.27;;;11.40;;
69334;SDS011;56477;52.742;15.242;2023-02-28T06:02:38;29.85;;;11.75;;
69334;SDS011;56477;52.742;15.242;2023-02-28T06:05:09;34.28;;;11.30;;
69334;SDS011;56477;52.742;15.242;2023-02-28T06:07:39;34.55;;;12.98;;
69334;SDS011;56477;52.742;15.242;2023-02-28T06:10:05;34.27;;;12.10;;
69334;SDS011;56477;52.742;15.242;2023-02-28T06:12:32;38.83;;;14.15;;
69334;SDS011;56477;52.742;15.242;2023-02-28T06:14:58;36.38;;;14.10;;
69334;SDS011;56477;52.742;15.242;2023-02-28T06:17:24;37.58;;;12.73;;
69334;SDS011;56477;52.742;15.242;2023-02-28T06:19:50;33.47;;;12.80;;
69334;SDS011;56477;52.742;15.242;2023-02-28T06:22:16;34.88;;;13.05;;
69334;SDS011;56477;52.742;15.242;2023-02-28T06:24:42;31.25;;;12.15;;
69334;SDS011;56477;52.742;15.242;2023-02-28T06:27:08;27.37;;;11.20;;
69334;SDS011;56477;52.742;15.242;2023-02-28T06:29:34;29.00;;;11.48;;
69334;SDS011;56477;52.742;15.242;2023-02-28T06:32:00;33.40;;;13.07;;
69334;SDS011;56477;52.742;15.242;2023-02-28T06:34:27;31.70;;;12.90;;
69334;SDS011;56477;52.742;15.242;2023-02-28T06:36:53;36.07;;;12.93;;
69334;SDS011;56477;52.742;15.242;2023-02-28T06:39:19;38.38;;;14.50;;
69334;SDS011;56477;52.742;15.242;2023-02-28T06:41:45;37.08;;;14.90;;
69334;SDS011;56477;52.742;15.242;2023-02-28T06:44:16;35.55;;;16.38;;
69334;SDS011;56477;52.742;15.242;2023-02-28T06:46:43;39.90;;;16.02;;
69334;SDS011;56477;52.742;15.242;2023-02-28T06:49:11;39.60;;;15.90;;
69334;SDS011;56477;52.742;15.242;2023-02-28T06:51:38;37.35;;;15.07;;
69334;SDS011;56477;52.742;15.242;2023-02-28T06:54:05;35.35;;;15.32;;
69334;SDS011;56477;52.742;15.242;2023-02-28T06:56:34;32.35;;;14.40;;
69334;SDS011;56477;52.742;15.242;2023-02-28T06:59:00;42.97;;;18.02;;
69334;SDS011;56477;52.742;15.242;2023-02-28T07:01:27;35.37;;;16.07;;
69334;SDS011;56477;52.742;15.242;2023-02-28T07:03:53;41.85;;;19.83;;
69334;SDS011;56477;52.742;15.242;2023-02-28T07:06:22;39.20;;;18.65;;
69334;SDS011;56477;52.742;15.242;2023-02-28T07:08:50;48.78;;;20.90;;
69334;SDS011;56477;52.742;15.242;2023-02-28T07:11:17;54.72;;;25.60;;
69334;SDS011;56477;52.742;15.242;2023-02-28T07:13:43;60.20;;;27.30;;
69334;SDS011;56477;52.742;15.242;2023-02-28T07:16:10;58.42;;;27.42;;
69334;SDS011;56477;52.742;15.242;2023-02-28T07:18:37;60.22;;;27.80;;
69334;SDS011;56477;52.742;15.242;2023-02-28T07:21:04;55.25;;;23.95;;
69334;SDS011;56477;52.742;15.242;2023-02-28T07:23:50;51.90;;;24.80;;
69334;SDS011;56477;52.742;15.242;2023-02-28T07:26:17;47.03;;;21.75;;
69334;SDS011;56477;52.742;15.242;2023-02-28T07:28:45;47.55;;;22.92;;
69334;SDS011;56477;52.742;15.242;2023-02-28T07:31:12;47.75;;;22.02;;
69334;SDS011;56477;52.742;15.242;2023-02-28T07:33:42;50.88;;;23.20;;
69334;SDS011;56477;52.742;15.242;2023-02-28T07:36:09;49.40;;;21.63;;
69334;SDS011;56477;52.742;15.242;2023-02-28T07:38:43;48.55;;;22.70;;
69334;SDS011;56477;52.742;15.242;2023-02-28T07:41:11;55.28;;;23.48;;
69334;SDS011;56477;52.742;15.242;2023-02-28T07:43:37;53.83;;;23.23;;
69334;SDS011;56477;52.742;15.242;2023-02-28T07:46:08;50.47;;;21.80;;
69334;SDS011;56477;52.742;15.242;2023-02-28T07:48:36;48.03;;;22.53;;
69334;SDS011;56477;52.742;15.242;2023-02-28T07:51:02;38.53;;;17.08;;
69334;SDS011;56477;52.742;15.242;2023-02-28T07:53:28;38.63;;;18.00;;
69334;SDS011;56477;52.742;15.242;2023-02-28T07:55:58;38.55;;;15.68;;
69334;SDS011;56477;52.742;15.242;2023-02-28T07:58:26;47.00;;;22.63;;
69334;SDS011;56477;52.742;15.242;2023-02-28T08:00:53;56.27;;;23.43;;
69334;SDS011;56477;52.742;15.242;2023-02-28T08:03:20;49.30;;;21.58;;
69334;SDS011;56477;52.742;15.242;2023-02-28T08:05:47;49.70;;;21.13;;
69334;SDS011;56477;52.742;15.242;2023-02-28T08:08:14;40.17;;;18.92;;
69334;SDS011;56477;52.742;15.242;2023-02-28T08:10:41;31.42;;;16.63;;
69334;SDS011;56477;52.742;15.242;2023-02-28T08:13:07;26.87;;;13.70;;
69334;SDS011;56477;52.742;15.242;2023-02-28T08:15:33;31.70;;;14.00;;
69334;SDS011;56477;52.742;15.242;2023-02-28T08:17:59;28.00;;;13.23;;
69334;SDS011;56477;52.742;15.242;2023-02-28T08:20:25;34.58;;;14.32;;
69334;SDS011;56477;52.742;15.242;2023-02-28T08:22:52;30.50;;;14.27;;
69334;SDS011;56477;52.742;15.242;2023-02-28T08:25:18;29.88;;;14.30;;
69334;SDS011;56477;52.742;15.242;2023-02-28T08:27:44;30.70;;;14.98;;
69334;SDS011;56477;52.742;15.242;2023-02-28T08:30:11;29.45;;;14.18;;
69334;SDS011;56477;52.742;15.242;2023-02-28T08:32:39;28.67;;;12.27;;
69334;SDS011;56477;52.742;15.242;2023-02-28T08:35:05;21.80;;;11.10;;
69334;SDS011;56477;52.742;15.242;2023-02-28T08:37:32;23.88;;;12.15;;
69334;SDS011;56477;52.742;15.242;2023-02-28T08:39:58;25.70;;;12.68;;
69334;SDS011;56477;52.742;15.242;2023-02-28T08:42:24;24.85;;;12.30;;
69334;SDS011;56477;52.742;15.242;2023-02-28T08:44:50;24.43;;;10.40;;
69334;SDS011;56477;52.742;15.242;2023-02-28T08:47:16;22.25;;;10.57;;
69334;SDS011;56477;52.742;15.242;2023-02-28T08:49:42;22.20;;;10.80;;
69334;SDS011;56477;52.742;15.242;2023-02-28T08:52:08;19.42;;;10.82;;
69334;SDS011;56477;52.742;15.242;2023-02-28T08:54:35;19.60;;;9.87;;
69334;SDS011;56477;52.742;15.242;2023-02-28T08:57:01;18.83;;;9.13;;
69334;SDS011;56477;52.742;15.242;2023-02-28T08:59:28;18.15;;;9.00;;
69334;SDS011;56477;52.742;15.242;2023-02-28T09:01:54;22.20;;;9.60;;
69334;SDS011;56477;52.742;15.242;2023-02-28T09:04:21;20.75;;;9.57;;
69334;SDS011;56477;52.742;15.242;2023-02-28T09:06:47;19.53;;;8.50;;
69334;SDS011;56477;52.742;15.242;2023-02-28T09:09:14;20.23;;;8.73;;
69334;SDS011;56477;52.742;15.242;2023-02-28T09:11:40;20.63;;;8.93;;
69334;SDS011;56477;52.742;15.242;2023-02-28T09:14:07;18.13;;;8.18;;
69334;SDS011;56477;52.742;15.242;2023-02-28T09:16:33;19.27;;;8.05;;
69334;SDS011;56477;52.742;15.242;2023-02-28T09:19:00;15.20;;;6.87;;
69334;SDS011;56477;52.742;15.242;2023-02-28T09:21:27;16.13;;;7.40;;
69334;SDS011;56477;52.742;15.242;2023-02-28T09:23:53;16.10;;;7.45;;
69334;SDS011;56477;52.742;15.242;2023-02-28T09:26:20;18.73;;;7.68;;
69334;SDS011;56477;52.742;15.242;2023-02-28T09:28:48;15.67;;;6.67;;
69334;SDS011;56477;52.742;15.242;2023-02-28T09:31:17;10.75;;;4.65;;
69334;SDS011;56477;52.742;15.242;2023-02-28T09:33:48;11.73;;;5.13;;
69334;SDS011;56477;52.742;15.242;2023-02-28T09:36:19;14.00;;;5.22;;
69334;SDS011;56477;52.742;15.242;2023-02-28T09:38:45;14.95;;;6.40;;
69334;SDS011;56477;52.742;15.242;2023-02-28T09:41:21;18.17;;;6.87;;
69334;SDS011;56477;52.742;15.242;2023-02-28T09:43:55;17.73;;;7.93;;
69334;SDS011;56477;52.742;15.242;2023-02-28T09:49:13;14.27;;;5.97;;
69334;SDS011;56477;52.742;15.242;2023-02-28T09:51:53;11.68;;;4.85;;
69334;SDS011;56477;52.742;15.242;2023-02-28T09:54:24;14.00;;;6.73;;
69334;SDS011;56477;52.742;15.242;2023-02-28T10:05:18;12.65;;;4.65;;
69334;SDS011;56477;52.742;15.242;2023-02-28T10:13:23;12.68;;;5.65;;
69334;SDS011;56477;52.742;15.242;2023-02-28T10:16:33;11.93;;;4.82;;
69334;SDS011;56477;52.742;15.242;2023-02-28T10:24:50;11.73;;;4.47;;
69334;SDS011;56477;52.742;15.242;2023-02-28T10:29:45;6.22;;;3.22;;
69334;SDS011;56477;52.742;15.242;2023-02-28T10:32:14;9.25;;;3.75;;
69334;SDS011;56477;52.742;15.242;2023-02-28T10:35:03;8.50;;;4.00;;
69334;SDS011;56477;52.742;15.242;2023-02-28T10:37:38;8.23;;;3.70;;
69334;SDS011;56477;52.742;15.242;2023-02-28T10:40:05;8.50;;;3.67;;
69334;SDS011;56477;52.742;15.242;2023-02-28T10:43:00;10.10;;;3.45;;
69334;SDS011;56477;52.742;15.242;2023-02-28T10:45:28;6.30;;;2.83;;
69334;SDS011;56477;52.742;15.242;2023-02-28T10:50:44;7.47;;;3.13;;
69334;SDS011;56477;52.742;15.242;2023-02-28T10:56:05;6.75;;;2.35;;
69334;SDS011;56477;52.742;15.242;2023-02-28T10:58:47;6.72;;;2.97;;
69334;SDS011;56477;52.742;15.242;2023-02-28T11:03:51;8.23;;;2.85;;
69334;SDS011;56477;52.742;15.242;2023-02-28T11:06:21;8.15;;;3.88;;
69334;SDS011;56477;52.742;15.242;2023-02-28T11:08:58;6.63;;;3.78;;
69334;SDS011;56477;52.742;15.242;2023-02-28T11:11:27;7.65;;;3.47;;
69334;SDS011;56477;52.742;15.242;2023-02-28T11:14:03;6.60;;;3.43;;
69334;SDS011;56477;52.742;15.242;2023-02-28T11:16:34;9.18;;;3.42;;
69334;SDS011;56477;52.742;15.242;2023-02-28T11:19:03;7.13;;;3.90;;
69334;SDS011;56477;52.742;15.242;2023-02-28T11:21:34;8.00;;;3.30;;
69334;SDS011;56477;52.742;15.242;2023-02-28T11:24:14;12.38;;;3.70;;
69334;SDS011;56477;52.742;15.242;2023-02-28T11:26:55;9.70;;;4.10;;
69334;SDS011;56477;52.742;15.242;2023-02-28T11:29:28;8.40;;;3.45;;
69334;SDS011;56477;52.742;15.242;2023-02-28T11:34:31;8.70;;;3.50;;
69334;SDS011;56477;52.742;15.242;2023-02-28T11:36:58;7.32;;;3.58;;
69334;SDS011;56477;52.742;15.242;2023-02-28T11:39:26;7.90;;;3.77;;
69334;SDS011;56477;52.742;15.242;2023-02-28T11:47:26;7.55;;;2.90;;
69334;SDS011;56477;52.742;15.242;2023-02-28T11:52:43;7.80;;;3.27;;
69334;SDS011;56477;52.742;15.242;2023-02-28T11:57:58;6.32;;;2.78;;
69334;SDS011;56477;52.742;15.242;2023-02-28T12:00:35;6.40;;;3.20;;
69334;SDS011;56477;52.742;15.242;2023-02-28T12:03:27;7.28;;;3.13;;
69334;SDS011;56477;52.742;15.242;2023-02-28T12:14:28;8.30;;;3.17;;
69334;SDS011;56477;52.742;15.242;2023-02-28T12:28:08;6.65;;;2.55;;
69334;SDS011;56477;52.742;15.242;2023-02-28T12:30:48;8.00;;;2.92;;
69334;SDS011;56477;52.742;15.242;2023-02-28T12:33:20;6.57;;;2.80;;
69334;SDS011;56477;52.742;15.242;2023-02-28T12:35:57;8.48;;;2.95;;
69334;SDS011;56477;52.742;15.242;2023-02-28T12:38:27;5.85;;;2.88;;
69334;SDS011;56477;52.742;15.242;2023-02-28T12:40:58;7.65;;;3.10;;
69334;SDS011;56477;52.742;15.242;2023-02-28T12:43:31;7.35;;;3.50;;
69334;SDS011;56477;52.742;15.242;2023-02-28T12:46:11;7.63;;;2.70;;
69334;SDS011;56477;52.742;15.242;2023-02-28T12:49:22;5.65;;;2.42;;
69334;SDS011;56477;52.742;15.242;2023-02-28T12:51:50;5.28;;;2.47;;
69334;SDS011;56477;52.742;15.242;2023-02-28T12:54:25;6.03;;;2.97;;
69334;SDS011;56477;52.742;15.242;2023-02-28T12:59:55;7.50;;;2.80;;
69334;SDS011;56477;52.742;15.242;2023-02-28T13:06:05;5.90;;;2.97;;
69334;SDS011;56477;52.742;15.242;2023-02-28T13:14:04;6.77;;;2.83;;
69334;SDS011;56477;52.742;15.242;2023-02-28T13:19:29;7.38;;;3.15;;
69334;SDS011;56477;52.742;15.242;2023-02-28T13:21:57;6.40;;;2.83;;
69334;SDS011;56477;52.742;15.242;2023-02-28T13:29:42;6.63;;;2.85;;
69334;SDS011;56477;52.742;15.242;2023-02-28T13:34:39;5.73;;;2.80;;
69334;SDS011;56477;52.742;15.242;2023-02-28T13:42:35;5.43;;;2.38;;
69334;SDS011;56477;52.742;15.242;2023-02-28T13:47:44;4.97;;;2.60;;
69334;SDS011;56477;52.742;15.242;2023-02-28T13:50:24;6.47;;;3.22;;
69334;SDS011;56477;52.742;15.242;2023-02-28T13:58:53;7.57;;;2.80;;
69334;SDS011;56477;52.742;15.242;2023-02-28T14:01:35;6.33;;;2.77;;
69334;SDS011;56477;52.742;15.242;2023-02-28T14:07:01;5.75;;;2.50;;
69334;SDS011;56477;52.742;15.242;2023-02-28T14:09:32;4.70;;;2.30;;
69334;SDS011;56477;52.742;15.242;2023-02-28T14:15:23;6.67;;;2.70;;
69334;SDS011;56477;52.742;15.242;2023-02-28T14:18:05;7.35;;;3.08;;
69334;SDS011;56477;52.742;15.242;2023-02-28T14:20:41;5.63;;;2.60;;
69334;SDS011;56477;52.742;15.242;2023-02-28T14:28:35;6.83;;;3.00;;
69334;SDS011;56477;52.742;15.242;2023-02-28T14:37:17;8.43;;;2.70;;
69334;SDS011;56477;52.742;15.242;2023-02-28T14:39:48;5.15;;;2.50;;
69334;SDS011;56477;52.742;15.242;2023-02-28T14:45:00;10.27;;;2.80;;
69334;SDS011;56477;52.742;15.242;2023-02-28T14:47:28;7.03;;;3.20;;
69334;SDS011;56477;52.742;15.242;2023-02-28T14:49:57;7.93;;;2.33;;
69334;SDS011;56477;52.742;15.242;2023-02-28T14:52:28;5.93;;;2.72;;
69334;SDS011;56477;52.742;15.242;2023-02-28T14:54:56;6.60;;;2.60;;
69334;SDS011;56477;52.742;15.242;2023-02-28T14:57:34;6.28;;;2.63;;
69334;SDS011;56477;52.742;15.242;2023-02-28T15:00:09;7.60;;;3.17;;
69334;SDS011;56477;52.742;15.242;2023-02-28T15:02:40;9.23;;;3.40;;
69334;SDS011;56477;52.742;15.242;2023-02-28T15:07:39;6.17;;;2.40;;
69334;SDS011;56477;52.742;15.242;2023-02-28T15:10:20;5.55;;;2.55;;
69334;SDS011;56477;52.742;15.242;2023-02-28T15:12:56;6.70;;;2.90;;
69334;SDS011;56477;52.742;15.242;2023-02-28T15:15:25;5.95;;;2.85;;
69334;SDS011;56477;52.742;15.242;2023-02-28T15:17:58;7.38;;;3.20;;
69334;SDS011;56477;52.742;15.242;2023-02-28T15:20:25;5.67;;;2.60;;
69334;SDS011;56477;52.742;15.242;2023-02-28T15:22:52;6.47;;;2.70;;
69334;SDS011;56477;52.742;15.242;2023-02-28T15:25:21;6.50;;;2.78;;
69334;SDS011;56477;52.742;15.242;2023-02-28T15:27:49;5.70;;;2.30;;
69334;SDS011;56477;52.742;15.242;2023-02-28T15:30:19;5.30;;;2.28;;
69334;SDS011;56477;52.742;15.242;2023-02-28T15:35:47;7.03;;;2.53;;
69334;SDS011;56477;52.742;15.242;2023-02-28T15:38:24;5.72;;;2.10;;
69334;SDS011;56477;52.742;15.242;2023-02-28T15:40:52;5.47;;;2.45;;
69334;SDS011;56477;52.742;15.242;2023-02-28T15:46:00;6.77;;;2.47;;
69334;SDS011;56477;52.742;15.242;2023-02-28T15:48:29;6.75;;;2.20;;
69334;SDS011;56477;52.742;15.242;2023-02-28T15:51:01;6.85;;;2.35;;
69334;SDS011;56477;52.742;15.242;2023-02-28T15:53:47;4.10;;;1.77;;
69334;SDS011;56477;52.742;15.242;2023-02-28T15:56:25;5.85;;;2.00;;
69334;SDS011;56477;52.742;15.242;2023-02-28T15:58:58;5.70;;;2.10;;
69334;SDS011;56477;52.742;15.242;2023-02-28T16:01:33;6.15;;;2.20;;
69334;SDS011;56477;52.742;15.242;2023-02-28T16:04:05;7.72;;;3.10;;
69334;SDS011;56477;52.742;15.242;2023-02-28T16:06:36;6.50;;;2.50;;
69334;SDS011;56477;52.742;15.242;2023-02-28T16:09:05;6.03;;;2.17;;
69334;SDS011;56477;52.742;15.242;2023-02-28T16:11:35;7.53;;;2.33;;
69334;SDS011;56477;52.742;15.242;2023-02-28T16:14:04;6.25;;;2.30;;
69334;SDS011;56477;52.742;15.242;2023-02-28T16:16:30;7.85;;;2.38;;
69334;SDS011;56477;52.742;15.242;2023-02-28T16:18:58;8.30;;;2.92;;
69334;SDS011;56477;52.742;15.242;2023-02-28T16:21:24;11.20;;;3.60;;
69334;SDS011;56477;52.742;15.242;2023-02-28T16:23:51;7.97;;;2.00;;
69334;SDS011;56477;52.742;15.242;2023-02-28T16:26:21;5.63;;;2.30;;
69334;SDS011;56477;52.742;15.242;2023-02-28T16:28:49;8.98;;;2.83;;
69334;SDS011;56477;52.742;15.242;2023-02-28T16:31:16;7.13;;;2.67;;
69334;SDS011;56477;52.742;15.242;2023-02-28T16:33:44;7.67;;;2.60;;
69334;SDS011;56477;52.742;15.242;2023-02-28T16:36:14;9.27;;;3.40;;
69334;SDS011;56477;52.742;15.242;2023-02-28T16:38:42;8.27;;;3.00;;
69334;SDS011;56477;52.742;15.242;2023-02-28T16:41:08;9.85;;;2.80;;
69334;SDS011;56477;52.742;15.242;2023-02-28T16:43:43;10.85;;;3.20;;
69334;SDS011;56477;52.742;15.242;2023-02-28T16:46:10;9.95;;;2.85;;
69334;SDS011;56477;52.742;15.242;2023-02-28T16:48:38;9.43;;;3.30;;
69334;SDS011;56477;52.742;15.242;2023-02-28T16:51:06;7.63;;;2.80;;
69334;SDS011;56477;52.742;15.242;2023-02-28T16:53:41;9.65;;;3.35;;
69334;SDS011;56477;52.742;15.242;2023-02-28T16:56:15;8.95;;;3.17;;
69334;SDS011;56477;52.742;15.242;2023-02-28T16:58:44;10.85;;;3.22;;
69334;SDS011;56477;52.742;15.242;2023-02-28T17:01:10;8.60;;;3.80;;
69334;SDS011;56477;52.742;15.242;2023-02-28T17:03:37;9.40;;;3.83;;
69334;SDS011;56477;52.742;15.242;2023-02-28T17:06:03;9.57;;;3.88;;
69334;SDS011;56477;52.742;15.242;2023-02-28T17:08:30;8.35;;;3.60;;
69334;SDS011;56477;52.742;15.242;2023-02-28T17:10:57;10.63;;;4.32;;
69334;SDS011;56477;52.742;15.242;2023-02-28T17:13:24;10.43;;;4.07;;
69334;SDS011;56477;52.742;15.242;2023-02-28T17:15:50;10.75;;;4.28;;
69334;SDS011;56477;52.742;15.242;2023-02-28T17:18:17;10.32;;;3.90;;
69334;SDS011;56477;52.742;15.242;2023-02-28T17:20:45;10.15;;;4.25;;
69334;SDS011;56477;52.742;15.242;2023-02-28T17:23:11;15.38;;;5.53;;
69334;SDS011;56477;52.742;15.242;2023-02-28T17:25:37;12.53;;;5.13;;
69334;SDS011;56477;52.742;15.242;2023-02-28T17:28:04;12.93;;;5.25;;
69334;SDS011;56477;52.742;15.242;2023-02-28T17:30:31;13.38;;;5.07;;